sensor_id;sensor_type;location;lat;lon;timestamp;P1;durP1;ratioP1;P2;durP2;ratioP2
10403;SDS011;5248;47.374;8.486;2023-05-07T00:01:14;2.00;;;1.90;;
10403;SDS011;5248;47.374;8.486;2023-05-07T00:03:40;2.37;;;2.17;;
10403;SDS011;5248;47.374;8.486;2023-05-07T00:06:07;2.27;;;2.10;;
10403;SDS011;5248;47.374;8.486;2023-05-07T00:08:33;4.30;;;2.10;;
10403;SDS011;5248;47.374;8.486;2023-05-07T00:11:01;2.20;;;1.93;;
10403;SDS011;5248;47.374;8.486;2023-05-07T00:13:28;1.80;;;1.70;;
10403;SDS011;5248;47.374;8.486;2023-05-07T00:15:55;2.97;;;1.87;;
10403;SDS011;5248;47.374;8.486;2023-05-07T00:18:22;3.30;;;1.77;;
10403;SDS011;5248;47.374;8.486;2023-05-07T00:20:48;2.47;;;2.10;;
10403;SDS011;5248;47.374;8.486;2023-05-07T00:23:15;2.23;;;1.77;;
10403;SDS011;5248;47.374;8.486;2023-05-07T00:25:41;2.07;;;1.90;;
10403;SDS011;5248;47.374;8.486;2023-05-07T00:28:09;2.77;;;2.37;;
10403;SDS011;5248;47.374;8.486;2023-05-07T00:30:36;2.00;;;1.90;;
10403;SDS011;5248;47.374;8.486;2023-05-07T00:33:02;2.00;;;1.90;;
10403;SDS011;5248;47.374;8.486;2023-05-07T00:35:28;2.20;;;1.87;;
10403;SDS011;5248;47.374;8.486;2023-05-07T00:37:55;3.33;;;1.90;;
10403;SDS011;5248;47.374;8.486;2023-05-07T00:40:21;2.37;;;2.13;;
10403;SDS011;5248;47.374;8.486;2023-05-07T00:42:49;1.80;;;1.70;;
10403;SDS011;5248;47.374;8.486;2023-05-07T00:45:19;2.03;;;1.83;;
10403;SDS011;5248;47.374;8.486;2023-05-07T00:47:45;3.50;;;1.90;;
10403;SDS011;5248;47.374;8.486;2023-05-07T00:50:12;2.93;;;1.77;;
10403;SDS011;5248;47.374;8.486;2023-05-07T00:52:38;2.80;;;2.00;;
10403;SDS011;5248;47.374;8.486;2023-05-07T00:55:06;2.83;;;1.93;;
10403;SDS011;5248;47.374;8.486;2023-05-07T00:57:35;4.00;;;1.77;;
10403;SDS011;5248;47.374;8.486;2023-05-07T01:00:03;1.80;;;1.70;;
10403;SDS011;5248;47.374;8.486;2023-05-07T01:02:31;2.40;;;1.97;;
10403;SDS011;5248;47.374;8.486;2023-05-07T01:04:57;2.00;;;1.90;;
10403;SDS011;5248;47.374;8.486;2023-05-07T01:07:24;2.60;;;2.00;;
10403;SDS011;5248;47.374;8.486;2023-05-07T01:09:50;1.93;;;1.77;;
10403;SDS011;5248;47.374;8.486;2023-05-07T01:12:17;2.77;;;2.57;;
10403;SDS011;5248;47.374;8.486;2023-05-07T01:14:44;3.30;;;1.90;;
10403;SDS011;5248;47.374;8.486;2023-05-07T01:17:10;1.87;;;1.77;;
10403;SDS011;5248;47.374;8.486;2023-05-07T01:19:38;2.33;;;2.00;;
10403;SDS011;5248;47.374;8.486;2023-05-07T01:22:07;2.30;;;2.10;;
10403;SDS011;5248;47.374;8.486;2023-05-07T01:24:37;2.37;;;2.17;;
10403;SDS011;5248;47.374;8.486;2023-05-07T01:27:03;2.23;;;1.93;;
10403;SDS011;5248;47.374;8.486;2023-05-07T01:29:30;2.40;;;2.10;;
10403;SDS011;5248;47.374;8.486;2023-05-07T01:31:58;2.50;;;2.10;;
10403;SDS011;5248;47.374;8.486;2023-05-07T01:34:26;3.07;;;2.17;;
10403;SDS011;5248;47.374;8.486;2023-05-07T01:36:53;2.50;;;2.17;;
10403;SDS011;5248;47.374;8.486;2023-05-07T01:39:20;2.17;;;2.07;;
10403;SDS011;5248;47.374;8.486;2023-05-07T01:41:48;2.00;;;1.90;;
10403;SDS011;5248;47.374;8.486;2023-05-07T01:44:15;2.37;;;2.20;;
10403;SDS011;5248;47.374;8.486;2023-05-07T01:46:42;2.50;;;2.30;;
10403;SDS011;5248;47.374;8.486;2023-05-07T01:49:09;5.50;;;2.27;;
10403;SDS011;5248;47.374;8.486;2023-05-07T01:51:35;2.80;;;2.20;;
10403;SDS011;5248;47.374;8.486;2023-05-07T01:54:02;3.93;;;2.30;;
10403;SDS011;5248;47.374;8.486;2023-05-07T01:56:28;2.37;;;2.13;;
10403;SDS011;5248;47.374;8.486;2023-05-07T01:58:56;3.67;;;2.20;;
10403;SDS011;5248;47.374;8.486;2023-05-07T02:01:23;2.37;;;2.17;;
10403;SDS011;5248;47.374;8.486;2023-05-07T02:03:49;2.47;;;2.27;;
10403;SDS011;5248;47.374;8.486;2023-05-07T02:06:16;2.70;;;2.23;;
10403;SDS011;5248;47.374;8.486;2023-05-07T02:08:42;2.50;;;2.30;;
10403;SDS011;5248;47.374;8.486;2023-05-07T02:11:09;3.13;;;1.90;;
10403;SDS011;5248;47.374;8.486;2023-05-07T02:13:35;3.27;;;2.20;;
10403;SDS011;5248;47.374;8.486;2023-05-07T02:16:04;4.87;;;2.23;;
10403;SDS011;5248;47.374;8.486;2023-05-07T02:18:30;2.17;;;2.00;;
10403;SDS011;5248;47.374;8.486;2023-05-07T02:20:58;5.77;;;2.20;;
10403;SDS011;5248;47.374;8.486;2023-05-07T02:23:24;2.50;;;2.30;;
10403;SDS011;5248;47.374;8.486;2023-05-07T02:25:50;2.27;;;2.10;;
10403;SDS011;5248;47.374;8.486;2023-05-07T02:28:18;4.53;;;1.93;;
10403;SDS011;5248;47.374;8.486;2023-05-07T02:30:45;1.90;;;1.80;;
10403;SDS011;5248;47.374;8.486;2023-05-07T02:33:12;2.23;;;2.03;;
10403;SDS011;5248;47.374;8.486;2023-05-07T02:35:39;2.47;;;2.37;;
10403;SDS011;5248;47.374;8.486;2023-05-07T02:38:06;4.27;;;2.00;;
10403;SDS011;5248;47.374;8.486;2023-05-07T02:40:32;1.80;;;1.70;;
10403;SDS011;5248;47.374;8.486;2023-05-07T02:43:03;2.80;;;2.03;;
10403;SDS011;5248;47.374;8.486;2023-05-07T02:45:30;2.90;;;1.87;;
10403;SDS011;5248;47.374;8.486;2023-05-07T02:47:56;2.00;;;1.90;;
10403;SDS011;5248;47.374;8.486;2023-05-07T02:50:24;2.20;;;2.00;;
10403;SDS011;5248;47.374;8.486;2023-05-07T02:52:53;2.27;;;2.07;;
10403;SDS011;5248;47.374;8.486;2023-05-07T02:55:19;2.03;;;1.93;;
10403;SDS011;5248;47.374;8.486;2023-05-07T02:57:46;2.00;;;1.90;;
10403;SDS011;5248;47.374;8.486;2023-05-07T03:00:14;2.47;;;1.97;;
10403;SDS011;5248;47.374;8.486;2023-05-07T03:02:42;1.63;;;1.53;;
10403;SDS011;5248;47.374;8.486;2023-05-07T03:05:08;3.10;;;2.13;;
10403;SDS011;5248;47.374;8.486;2023-05-07T03:07:37;2.90;;;1.90;;
10403;SDS011;5248;47.374;8.486;2023-05-07T03:10:03;2.17;;;1.87;;
10403;SDS011;5248;47.374;8.486;2023-05-07T03:12:30;1.77;;;1.60;;
10403;SDS011;5248;47.374;8.486;2023-05-07T03:14:57;1.80;;;1.70;;
10403;SDS011;5248;47.374;8.486;2023-05-07T03:17:23;1.63;;;1.53;;
10403;SDS011;5248;47.374;8.486;2023-05-07T03:19:50;3.30;;;1.90;;
10403;SDS011;5248;47.374;8.486;2023-05-07T03:22:16;1.97;;;1.87;;
10403;SDS011;5248;47.374;8.486;2023-05-07T03:24:44;2.50;;;2.07;;
10403;SDS011;5248;47.374;8.486;2023-05-07T03:27:11;2.40;;;2.10;;
10403;SDS011;5248;47.374;8.486;2023-05-07T03:29:37;2.30;;;2.00;;
10403;SDS011;5248;47.374;8.486;2023-05-07T03:32:04;2.50;;;2.00;;
10403;SDS011;5248;47.374;8.486;2023-05-07T03:34:31;2.10;;;1.93;;
10403;SDS011;5248;47.374;8.486;2023-05-07T03:36:57;5.37;;;2.40;;
10403;SDS011;5248;47.374;8.486;2023-05-07T03:39:24;2.23;;;2.00;;
10403;SDS011;5248;47.374;8.486;2023-05-07T03:41:52;2.60;;;1.80;;
10403;SDS011;5248;47.374;8.486;2023-05-07T03:44:18;1.77;;;1.67;;
10403;SDS011;5248;47.374;8.486;2023-05-07T03:46:45;1.97;;;1.77;;
10403;SDS011;5248;47.374;8.486;2023-05-07T03:49:11;1.97;;;1.77;;
10403;SDS011;5248;47.374;8.486;2023-05-07T03:51:38;1.97;;;1.80;;
10403;SDS011;5248;47.374;8.486;2023-05-07T03:54:04;1.73;;;1.63;;
10403;SDS011;5248;47.374;8.486;2023-05-07T03:56:31;3.17;;;1.53;;
10403;SDS011;5248;47.374;8.486;2023-05-07T03:58:59;2.20;;;1.77;;
10403;SDS011;5248;47.374;8.486;2023-05-07T04:01:26;2.27;;;2.07;;
10403;SDS011;5248;47.374;8.486;2023-05-07T04:03:53;2.27;;;2.07;;
10403;SDS011;5248;47.374;8.486;2023-05-07T04:06:19;2.40;;;1.90;;
10403;SDS011;5248;47.374;8.486;2023-05-07T04:08:45;2.63;;;1.53;;
10403;SDS011;5248;47.374;8.486;2023-05-07T04:11:12;1.43;;;1.33;;
10403;SDS011;5248;47.374;8.486;2023-05-07T04:13:38;4.50;;;2.00;;
10403;SDS011;5248;47.374;8.486;2023-05-07T04:16:06;2.53;;;1.50;;
10403;SDS011;5248;47.374;8.486;2023-05-07T04:18:33;2.43;;;1.70;;
10403;SDS011;5248;47.374;8.486;2023-05-07T04:21:00;1.60;;;1.57;;
10403;SDS011;5248;47.374;8.486;2023-05-07T04:23:26;2.00;;;1.60;;
10403;SDS011;5248;47.374;8.486;2023-05-07T04:25:53;1.57;;;1.47;;
10403;SDS011;5248;47.374;8.486;2023-05-07T04:28:22;2.20;;;1.60;;
10403;SDS011;5248;47.374;8.486;2023-05-07T04:30:48;1.60;;;1.50;;
10403;SDS011;5248;47.374;8.486;2023-05-07T04:33:16;1.70;;;1.60;;
10403;SDS011;5248;47.374;8.486;2023-05-07T04:35:43;1.97;;;1.70;;
10403;SDS011;5248;47.374;8.486;2023-05-07T04:38:11;2.53;;;1.60;;
10403;SDS011;5248;47.374;8.486;2023-05-07T04:40:37;1.80;;;1.70;;
10403;SDS011;5248;47.374;8.486;2023-05-07T04:43:04;2.33;;;1.70;;
10403;SDS011;5248;47.374;8.486;2023-05-07T04:45:30;2.17;;;1.80;;
10403;SDS011;5248;47.374;8.486;2023-05-07T04:47:57;3.20;;;1.57;;
10403;SDS011;5248;47.374;8.486;2023-05-07T04:50:25;2.23;;;1.70;;
10403;SDS011;5248;47.374;8.486;2023-05-07T04:52:52;1.73;;;1.63;;
10403;SDS011;5248;47.374;8.486;2023-05-07T04:55:18;1.90;;;1.80;;
10403;SDS011;5248;47.374;8.486;2023-05-07T04:57:45;2.43;;;1.90;;
10403;SDS011;5248;47.374;8.486;2023-05-07T05:00:12;2.10;;;2.00;;
10403;SDS011;5248;47.374;8.486;2023-05-07T05:02:39;3.27;;;1.97;;
10403;SDS011;5248;47.374;8.486;2023-05-07T05:05:06;1.83;;;1.73;;
10403;SDS011;5248;47.374;8.486;2023-05-07T05:07:34;2.30;;;2.20;;
10403;SDS011;5248;47.374;8.486;2023-05-07T05:10:01;2.27;;;2.17;;
10403;SDS011;5248;47.374;8.486;2023-05-07T05:12:29;1.87;;;1.73;;
10403;SDS011;5248;47.374;8.486;2023-05-07T05:14:56;2.33;;;2.23;;
10403;SDS011;5248;47.374;8.486;2023-05-07T05:17:22;2.40;;;2.30;;
10403;SDS011;5248;47.374;8.486;2023-05-07T05:19:49;3.03;;;2.73;;
10403;SDS011;5248;47.374;8.486;2023-05-07T05:22:15;2.77;;;2.57;;
10403;SDS011;5248;47.374;8.486;2023-05-07T05:24:43;2.90;;;2.60;;
10403;SDS011;5248;47.374;8.486;2023-05-07T05:27:10;3.60;;;3.20;;
10403;SDS011;5248;47.374;8.486;2023-05-07T05:29:36;3.63;;;2.87;;
10403;SDS011;5248;47.374;8.486;2023-05-07T05:32:03;3.10;;;2.90;;
10403;SDS011;5248;47.374;8.486;2023-05-07T05:34:30;3.90;;;3.07;;
10403;SDS011;5248;47.374;8.486;2023-05-07T05:36:58;3.20;;;2.80;;
10403;SDS011;5248;47.374;8.486;2023-05-07T05:39:25;5.10;;;2.97;;
10403;SDS011;5248;47.374;8.486;2023-05-07T05:41:53;2.87;;;2.60;;
10403;SDS011;5248;47.374;8.486;2023-05-07T05:44:19;2.80;;;2.60;;
10403;SDS011;5248;47.374;8.486;2023-05-07T05:46:46;2.70;;;2.50;;
10403;SDS011;5248;47.374;8.486;2023-05-07T05:49:14;2.73;;;2.60;;
10403;SDS011;5248;47.374;8.486;2023-05-07T05:51:41;2.60;;;2.40;;
10403;SDS011;5248;47.374;8.486;2023-05-07T05:54:07;2.60;;;2.40;;
10403;SDS011;5248;47.374;8.486;2023-05-07T05:56:34;3.63;;;2.40;;
10403;SDS011;5248;47.374;8.486;2023-05-07T05:59:02;3.20;;;2.47;;
10403;SDS011;5248;47.374;8.486;2023-05-07T06:01:28;2.47;;;2.27;;
10403;SDS011;5248;47.374;8.486;2023-05-07T06:03:55;2.50;;;2.40;;
10403;SDS011;5248;47.374;8.486;2023-05-07T06:06:22;3.10;;;2.40;;
10403;SDS011;5248;47.374;8.486;2023-05-07T06:08:48;5.30;;;2.40;;
10403;SDS011;5248;47.374;8.486;2023-05-07T06:11:15;3.37;;;2.20;;
10403;SDS011;5248;47.374;8.486;2023-05-07T06:13:44;2.30;;;2.10;;
10403;SDS011;5248;47.374;8.486;2023-05-07T06:16:12;2.10;;;2.00;;
10403;SDS011;5248;47.374;8.486;2023-05-07T06:18:38;2.17;;;1.90;;
10403;SDS011;5248;47.374;8.486;2023-05-07T06:21:05;2.97;;;2.47;;
10403;SDS011;5248;47.374;8.486;2023-05-07T06:23:31;2.25;;;2.15;;
10403;SDS011;5248;47.374;8.486;2023-05-07T06:25:57;2.43;;;2.23;;
10403;SDS011;5248;47.374;8.486;2023-05-07T06:28:24;2.28;;;2.08;;
10403;SDS011;5248;47.374;8.486;2023-05-07T06:30:51;2.28;;;2.17;;
10403;SDS011;5248;47.374;8.486;2023-05-07T06:33:19;2.67;;;2.38;;
10403;SDS011;5248;47.374;8.486;2023-05-07T06:35:47;4.72;;;2.50;;
10403;SDS011;5248;47.374;8.486;2023-05-07T06:38:13;2.45;;;1.92;;
10403;SDS011;5248;47.374;8.486;2023-05-07T06:40:40;2.33;;;2.05;;
10403;SDS011;5248;47.374;8.486;2023-05-07T06:43:06;4.30;;;2.10;;
10403;SDS011;5248;47.374;8.486;2023-05-07T06:45:33;1.90;;;1.80;;
10403;SDS011;5248;47.374;8.486;2023-05-07T06:47:59;3.15;;;1.90;;
10403;SDS011;5248;47.374;8.486;2023-05-07T06:50:27;2.15;;;1.88;;
10403;SDS011;5248;47.374;8.486;2023-05-07T06:52:53;1.92;;;1.83;;
10403;SDS011;5248;47.374;8.486;2023-05-07T06:55:21;2.17;;;1.95;;
10403;SDS011;5248;47.374;8.486;2023-05-07T06:57:50;1.88;;;1.70;;
10403;SDS011;5248;47.374;8.486;2023-05-07T07:00:17;2.75;;;2.13;;
10403;SDS011;5248;47.374;8.486;2023-05-07T07:02:45;3.00;;;1.95;;
10403;SDS011;5248;47.374;8.486;2023-05-07T07:05:11;3.58;;;2.67;;
10403;SDS011;5248;47.374;8.486;2023-05-07T07:07:39;3.10;;;2.80;;
10403;SDS011;5248;47.374;8.486;2023-05-07T07:10:06;2.58;;;2.30;;
10403;SDS011;5248;47.374;8.486;2023-05-07T07:12:33;2.80;;;2.55;;
10403;SDS011;5248;47.374;8.486;2023-05-07T07:15:00;2.55;;;2.33;;
10403;SDS011;5248;47.374;8.486;2023-05-07T07:17:27;2.85;;;2.20;;
10403;SDS011;5248;47.374;8.486;2023-05-07T07:19:54;2.35;;;2.10;;
10403;SDS011;5248;47.374;8.486;2023-05-07T07:22:20;4.53;;;2.65;;
10403;SDS011;5248;47.374;8.486;2023-05-07T07:24:48;2.70;;;2.50;;
10403;SDS011;5248;47.374;8.486;2023-05-07T07:27:16;3.20;;;2.20;;
10403;SDS011;5248;47.374;8.486;2023-05-07T07:29:42;2.55;;;2.35;;
10403;SDS011;5248;47.374;8.486;2023-05-07T07:32:09;2.83;;;2.63;;
10403;SDS011;5248;47.374;8.486;2023-05-07T07:34:35;2.97;;;2.78;;
10403;SDS011;5248;47.374;8.486;2023-05-07T07:37:02;2.40;;;2.20;;
10403;SDS011;5248;47.374;8.486;2023-05-07T07:39:31;2.60;;;2.40;;
10403;SDS011;5248;47.374;8.486;2023-05-07T07:41:58;3.63;;;2.55;;
10403;SDS011;5248;47.374;8.486;2023-05-07T07:44:25;5.57;;;2.47;;
10403;SDS011;5248;47.374;8.486;2023-05-07T07:46:51;4.10;;;2.20;;
10403;SDS011;5248;47.374;8.486;2023-05-07T07:49:18;3.40;;;2.25;;
10403;SDS011;5248;47.374;8.486;2023-05-07T07:51:44;2.50;;;2.33;;
10403;SDS011;5248;47.374;8.486;2023-05-07T07:54:11;3.53;;;2.50;;
10403;SDS011;5248;47.374;8.486;2023-05-07T07:56:37;2.92;;;2.72;;
10403;SDS011;5248;47.374;8.486;2023-05-07T07:59:05;2.63;;;2.33;;
10403;SDS011;5248;47.374;8.486;2023-05-07T08:01:31;2.13;;;2.03;;
10403;SDS011;5248;47.374;8.486;2023-05-07T08:03:58;2.33;;;2.20;;
10403;SDS011;5248;47.374;8.486;2023-05-07T08:06:24;2.10;;;1.90;;
10403;SDS011;5248;47.374;8.486;2023-05-07T08:08:52;2.47;;;1.95;;
10403;SDS011;5248;47.374;8.486;2023-05-07T08:11:18;3.08;;;2.13;;
10403;SDS011;5248;47.374;8.486;2023-05-07T08:13:45;2.38;;;1.83;;
10403;SDS011;5248;47.374;8.486;2023-05-07T08:16:13;1.63;;;1.52;;
10403;SDS011;5248;47.374;8.486;2023-05-07T08:18:40;1.38;;;1.33;;
10403;SDS011;5248;47.374;8.486;2023-05-07T08:21:06;2.28;;;1.63;;
10403;SDS011;5248;47.374;8.486;2023-05-07T08:23:33;2.03;;;1.60;;
10403;SDS011;5248;47.374;8.486;2023-05-07T08:25:59;2.70;;;1.70;;
10403;SDS011;5248;47.374;8.486;2023-05-07T08:28:26;3.78;;;1.55;;
10403;SDS011;5248;47.374;8.486;2023-05-07T08:30:52;1.73;;;1.60;;
10403;SDS011;5248;47.374;8.486;2023-05-07T08:33:20;2.47;;;1.50;;
10403;SDS011;5248;47.374;8.486;2023-05-07T08:35:47;2.15;;;1.33;;
10403;SDS011;5248;47.374;8.486;2023-05-07T08:38:13;2.33;;;1.60;;
10403;SDS011;5248;47.374;8.486;2023-05-07T08:40:40;1.88;;;1.70;;
10403;SDS011;5248;47.374;8.486;2023-05-07T08:43:07;3.25;;;1.65;;
10403;SDS011;5248;47.374;8.486;2023-05-07T08:45:34;2.92;;;1.85;;
10403;SDS011;5248;47.374;8.486;2023-05-07T08:48:01;1.90;;;1.80;;
10403;SDS011;5248;47.374;8.486;2023-05-07T08:50:30;2.13;;;1.80;;
10403;SDS011;5248;47.374;8.486;2023-05-07T08:52:56;1.90;;;1.80;;
10403;SDS011;5248;47.374;8.486;2023-05-07T08:55:25;2.28;;;2.00;;
10403;SDS011;5248;47.374;8.486;2023-05-07T08:57:51;3.72;;;3.38;;
10403;SDS011;5248;47.374;8.486;2023-05-07T09:00:18;2.30;;;2.20;;
10403;SDS011;5248;47.374;8.486;2023-05-07T09:02:45;2.55;;;2.08;;
10403;SDS011;5248;47.374;8.486;2023-05-07T09:05:12;2.17;;;1.98;;
10403;SDS011;5248;47.374;8.486;2023-05-07T09:07:39;1.98;;;1.85;;
10403;SDS011;5248;47.374;8.486;2023-05-07T09:10:06;2.65;;;2.35;;
10403;SDS011;5248;47.374;8.486;2023-05-07T09:12:33;2.22;;;2.13;;
10403;SDS011;5248;47.374;8.486;2023-05-07T09:15:01;2.58;;;2.08;;
10403;SDS011;5248;47.374;8.486;2023-05-07T09:17:28;2.22;;;2.05;;
10403;SDS011;5248;47.374;8.486;2023-05-07T09:19:55;2.35;;;2.15;;
10403;SDS011;5248;47.374;8.486;2023-05-07T09:22:21;1.67;;;1.58;;
10403;SDS011;5248;47.374;8.486;2023-05-07T09:24:49;4.40;;;2.75;;
10403;SDS011;5248;47.374;8.486;2023-05-07T09:27:16;2.15;;;2.05;;
10403;SDS011;5248;47.374;8.486;2023-05-07T09:29:43;2.20;;;2.00;;
10403;SDS011;5248;47.374;8.486;2023-05-07T09:32:10;2.47;;;2.38;;
10403;SDS011;5248;47.374;8.486;2023-05-07T09:34:36;2.97;;;2.60;;
10403;SDS011;5248;47.374;8.486;2023-05-07T09:37:03;4.63;;;3.63;;
10403;SDS011;5248;47.374;8.486;2023-05-07T09:39:38;3.72;;;2.80;;
10403;SDS011;5248;47.374;8.486;2023-05-07T09:42:06;3.03;;;2.65;;
10403;SDS011;5248;47.374;8.486;2023-05-07T09:44:33;2.55;;;2.10;;
10403;SDS011;5248;47.374;8.486;2023-05-07T09:46:59;2.92;;;2.20;;
10403;SDS011;5248;47.374;8.486;2023-05-07T09:49:28;2.38;;;2.28;;
10403;SDS011;5248;47.374;8.486;2023-05-07T09:51:55;2.90;;;2.60;;
10403;SDS011;5248;47.374;8.486;2023-05-07T09:54:22;2.30;;;2.10;;
10403;SDS011;5248;47.374;8.486;2023-05-07T09:56:49;2.42;;;2.22;;
10403;SDS011;5248;47.374;8.486;2023-05-07T09:59:18;2.40;;;2.15;;
10403;SDS011;5248;47.374;8.486;2023-05-07T10:01:46;2.78;;;2.40;;
10403;SDS011;5248;47.374;8.486;2023-05-07T10:04:13;2.65;;;2.33;;
10403;SDS011;5248;47.374;8.486;2023-05-07T10:06:40;2.33;;;2.00;;
10403;SDS011;5248;47.374;8.486;2023-05-07T10:09:07;4.35;;;2.70;;
10403;SDS011;5248;47.374;8.486;2023-05-07T10:11:34;4.25;;;1.92;;
10403;SDS011;5248;47.374;8.486;2023-05-07T10:14:02;2.40;;;2.22;;
10403;SDS011;5248;47.374;8.486;2023-05-07T10:16:33;2.45;;;1.80;;
10403;SDS011;5248;47.374;8.486;2023-05-07T10:19:02;2.58;;;2.30;;
10403;SDS011;5248;47.374;8.486;2023-05-07T10:21:28;2.30;;;2.10;;
10403;SDS011;5248;47.374;8.486;2023-05-07T10:23:57;2.53;;;2.20;;
10403;SDS011;5248;47.374;8.486;2023-05-07T10:26:24;4.13;;;2.50;;
10403;SDS011;5248;47.374;8.486;2023-05-07T10:28:53;3.20;;;2.10;;
10403;SDS011;5248;47.374;8.486;2023-05-07T10:31:37;2.70;;;2.47;;
10403;SDS011;5248;47.374;8.486;2023-05-07T10:34:11;2.63;;;2.30;;
10403;SDS011;5248;47.374;8.486;2023-05-07T10:36:44;2.75;;;2.50;;
10403;SDS011;5248;47.374;8.486;2023-05-07T10:39:12;2.30;;;2.20;;
10403;SDS011;5248;47.374;8.486;2023-05-07T10:41:38;3.05;;;2.25;;
10403;SDS011;5248;47.374;8.486;2023-05-07T10:44:05;3.90;;;2.30;;
10403;SDS011;5248;47.374;8.486;2023-05-07T10:46:32;3.63;;;2.20;;
10403;SDS011;5248;47.374;8.486;2023-05-07T10:49:08;4.57;;;2.30;;
10403;SDS011;5248;47.374;8.486;2023-05-07T10:51:36;3.47;;;2.13;;
10403;SDS011;5248;47.374;8.486;2023-05-07T10:54:19;2.88;;;2.03;;
10403;SDS011;5248;47.374;8.486;2023-05-07T10:56:46;2.08;;;1.98;;
10403;SDS011;5248;47.374;8.486;2023-05-07T10:59:34;2.88;;;2.40;;
10403;SDS011;5248;47.374;8.486;2023-05-07T11:02:06;2.60;;;2.50;;
10403;SDS011;5248;47.374;8.486;2023-05-07T11:04:36;2.08;;;1.98;;
10403;SDS011;5248;47.374;8.486;2023-05-07T11:10:01;3.30;;;2.63;;
10403;SDS011;5248;47.374;8.486;2023-05-07T11:18:04;2.85;;;2.65;;
10403;SDS011;5248;47.374;8.486;2023-05-07T11:20:48;2.75;;;2.40;;
10403;SDS011;5248;47.374;8.486;2023-05-07T11:26:27;2.90;;;2.70;;
10403;SDS011;5248;47.374;8.486;2023-05-07T11:28:55;3.38;;;3.10;;
10403;SDS011;5248;47.374;8.486;2023-05-07T11:31:22;3.47;;;2.70;;
10403;SDS011;5248;47.374;8.486;2023-05-07T11:33:51;3.20;;;3.00;;
10403;SDS011;5248;47.374;8.486;2023-05-07T11:36:19;4.50;;;2.70;;
10403;SDS011;5248;47.374;8.486;2023-05-07T11:38:46;2.90;;;2.70;;
10403;SDS011;5248;47.374;8.486;2023-05-07T11:41:13;3.03;;;2.75;;
10403;SDS011;5248;47.374;8.486;2023-05-07T11:43:53;2.95;;;2.75;;
10403;SDS011;5248;47.374;8.486;2023-05-07T11:46:21;2.80;;;2.60;;
10403;SDS011;5248;47.374;8.486;2023-05-07T11:48:48;7.03;;;3.15;;
10403;SDS011;5248;47.374;8.486;2023-05-07T11:51:19;2.97;;;2.70;;
10403;SDS011;5248;47.374;8.486;2023-05-07T11:53:47;3.83;;;2.65;;
10403;SDS011;5248;47.374;8.486;2023-05-07T11:56:14;2.50;;;2.30;;
10403;SDS011;5248;47.374;8.486;2023-05-07T11:58:43;2.65;;;2.45;;
10403;SDS011;5248;47.374;8.486;2023-05-07T12:01:10;2.97;;;2.78;;
10403;SDS011;5248;47.374;8.486;2023-05-07T12:03:39;3.70;;;2.67;;
10403;SDS011;5248;47.374;8.486;2023-05-07T12:06:08;2.60;;;2.40;;
10403;SDS011;5248;47.374;8.486;2023-05-07T12:08:37;4.78;;;2.42;;
10403;SDS011;5248;47.374;8.486;2023-05-07T12:11:06;2.67;;;2.47;;
10403;SDS011;5248;47.374;8.486;2023-05-07T12:13:33;2.50;;;2.30;;
10403;SDS011;5248;47.374;8.486;2023-05-07T12:16:00;4.13;;;2.65;;
10403;SDS011;5248;47.374;8.486;2023-05-07T12:18:28;4.60;;;2.90;;
10403;SDS011;5248;47.374;8.486;2023-05-07T12:20:55;2.65;;;2.50;;
10403;SDS011;5248;47.374;8.486;2023-05-07T12:23:21;2.50;;;2.40;;
10403;SDS011;5248;47.374;8.486;2023-05-07T12:25:49;2.88;;;2.67;;
10403;SDS011;5248;47.374;8.486;2023-05-07T12:28:17;2.92;;;2.72;;
10403;SDS011;5248;47.374;8.486;2023-05-07T12:30:44;4.47;;;3.10;;
10403;SDS011;5248;47.374;8.486;2023-05-07T12:33:12;2.80;;;2.55;;
10403;SDS011;5248;47.374;8.486;2023-05-07T12:35:42;4.10;;;2.60;;
10403;SDS011;5248;47.374;8.486;2023-05-07T12:38:09;3.00;;;2.80;;
10403;SDS011;5248;47.374;8.486;2023-05-07T12:40:39;3.13;;;2.70;;
10403;SDS011;5248;47.374;8.486;2023-05-07T12:43:09;3.95;;;2.67;;
10403;SDS011;5248;47.374;8.486;2023-05-07T12:45:41;3.08;;;2.72;;
10403;SDS011;5248;47.374;8.486;2023-05-07T12:48:09;3.78;;;2.80;;
10403;SDS011;5248;47.374;8.486;2023-05-07T12:50:35;3.40;;;3.08;;
10403;SDS011;5248;47.374;8.486;2023-05-07T12:53:02;3.20;;;2.90;;
10403;SDS011;5248;47.374;8.486;2023-05-07T12:55:32;3.70;;;3.13;;
10403;SDS011;5248;47.374;8.486;2023-05-07T12:58:06;3.60;;;3.17;;
10403;SDS011;5248;47.374;8.486;2023-05-07T13:00:35;3.00;;;2.70;;
10403;SDS011;5248;47.374;8.486;2023-05-07T13:03:02;3.35;;;3.10;;
10403;SDS011;5248;47.374;8.486;2023-05-07T13:05:28;3.50;;;3.20;;
10403;SDS011;5248;47.374;8.486;2023-05-07T13:07:55;3.17;;;2.97;;
10403;SDS011;5248;47.374;8.486;2023-05-07T13:10:22;2.92;;;2.72;;
10403;SDS011;5248;47.374;8.486;2023-05-07T13:12:49;3.03;;;2.72;;
10403;SDS011;5248;47.374;8.486;2023-05-07T13:15:16;3.33;;;2.70;;
10403;SDS011;5248;47.374;8.486;2023-05-07T13:17:44;3.53;;;2.55;;
10403;SDS011;5248;47.374;8.486;2023-05-07T13:20:11;3.28;;;2.80;;
10403;SDS011;5248;47.374;8.486;2023-05-07T13:22:38;2.80;;;2.60;;
10403;SDS011;5248;47.374;8.486;2023-05-07T13:25:05;2.58;;;2.42;;
10403;SDS011;5248;47.374;8.486;2023-05-07T13:27:32;2.78;;;2.50;;
10403;SDS011;5248;47.374;8.486;2023-05-07T13:30:01;4.13;;;2.42;;
10403;SDS011;5248;47.374;8.486;2023-05-07T13:32:28;2.88;;;2.53;;
10403;SDS011;5248;47.374;8.486;2023-05-07T13:34:56;2.58;;;2.28;;
10403;SDS011;5248;47.374;8.486;2023-05-07T13:37:22;2.45;;;2.35;;
10403;SDS011;5248;47.374;8.486;2023-05-07T13:39:48;2.60;;;2.45;;
10403;SDS011;5248;47.374;8.486;2023-05-07T13:42:15;3.38;;;2.80;;
10403;SDS011;5248;47.374;8.486;2023-05-07T13:44:41;2.75;;;2.50;;
10403;SDS011;5248;47.374;8.486;2023-05-07T13:47:08;3.75;;;2.60;;
10403;SDS011;5248;47.374;8.486;2023-05-07T13:49:37;3.33;;;2.97;;
10403;SDS011;5248;47.374;8.486;2023-05-07T13:52:05;2.50;;;2.15;;
10403;SDS011;5248;47.374;8.486;2023-05-07T13:54:31;3.45;;;2.20;;
10403;SDS011;5248;47.374;8.486;2023-05-07T13:56:58;2.50;;;2.30;;
10403;SDS011;5248;47.374;8.486;2023-05-07T13:59:26;3.33;;;2.33;;
10403;SDS011;5248;47.374;8.486;2023-05-07T14:01:52;2.42;;;2.20;;
10403;SDS011;5248;47.374;8.486;2023-05-07T14:04:19;2.28;;;2.08;;
10403;SDS011;5248;47.374;8.486;2023-05-07T14:06:46;2.60;;;2.40;;
10403;SDS011;5248;47.374;8.486;2023-05-07T14:09:14;2.33;;;1.95;;
10403;SDS011;5248;47.374;8.486;2023-05-07T14:11:40;2.13;;;2.00;;
10403;SDS011;5248;47.374;8.486;2023-05-07T14:14:07;2.53;;;2.05;;
10403;SDS011;5248;47.374;8.486;2023-05-07T14:16:35;2.58;;;2.15;;
10403;SDS011;5248;47.374;8.486;2023-05-07T14:19:02;4.38;;;2.20;;
10403;SDS011;5248;47.374;8.486;2023-05-07T14:21:28;2.90;;;2.10;;
10403;SDS011;5248;47.374;8.486;2023-05-07T14:23:56;2.72;;;2.53;;
10403;SDS011;5248;47.374;8.486;2023-05-07T14:26:24;1.83;;;1.73;;
10403;SDS011;5248;47.374;8.486;2023-05-07T14:28:52;4.40;;;1.92;;
10403;SDS011;5248;47.374;8.486;2023-05-07T14:31:22;1.90;;;1.80;;
10403;SDS011;5248;47.374;8.486;2023-05-07T14:33:48;2.30;;;2.10;;
10403;SDS011;5248;47.374;8.486;2023-05-07T14:36:15;2.05;;;1.95;;
10403;SDS011;5248;47.374;8.486;2023-05-07T14:38:44;2.30;;;2.10;;
10403;SDS011;5248;47.374;8.486;2023-05-07T14:41:11;1.95;;;1.75;;
10403;SDS011;5248;47.374;8.486;2023-05-07T14:43:41;2.45;;;2.05;;
10403;SDS011;5248;47.374;8.486;2023-05-07T14:46:07;3.20;;;2.90;;
10403;SDS011;5248;47.374;8.486;2023-05-07T14:48:35;2.25;;;2.15;;
10403;SDS011;5248;47.374;8.486;2023-05-07T14:51:01;2.60;;;2.40;;
10403;SDS011;5248;47.374;8.486;2023-05-07T14:53:28;3.15;;;2.63;;
10403;SDS011;5248;47.374;8.486;2023-05-07T14:55:55;2.95;;;2.28;;
10403;SDS011;5248;47.374;8.486;2023-05-07T14:58:21;2.40;;;2.30;;
10403;SDS011;5248;47.374;8.486;2023-05-07T15:00:49;5.63;;;2.63;;
10403;SDS011;5248;47.374;8.486;2023-05-07T15:03:15;3.13;;;2.92;;
10403;SDS011;5248;47.374;8.486;2023-05-07T15:05:42;2.53;;;2.30;;
10403;SDS011;5248;47.374;8.486;2023-05-07T15:08:09;3.42;;;2.55;;
10403;SDS011;5248;47.374;8.486;2023-05-07T15:10:35;3.08;;;2.28;;
10403;SDS011;5248;47.374;8.486;2023-05-07T15:13:05;3.30;;;2.60;;